createdAt,value
2023-04-11T00:00:29.325Z,10.29
2023-04-11T00:03:00.091Z,10.26
2023-04-11T00:05:28.072Z,10.29
2023-04-11T00:07:54.587Z,10.29
2023-04-11T00:10:21.117Z,10.17
2023-04-11T00:12:47.637Z,10.22
2023-04-11T00:15:16.171Z,10.16
2023-04-11T00:17:45.782Z,10.16
2023-04-11T00:20:12.982Z,10.12
2023-04-11T00:22:39.527Z,10.08
2023-04-11T00:25:07.097Z,10.05
2023-04-11T00:27:33.539Z,10.06
2023-04-11T00:30:00.747Z,10.00
2023-04-11T00:32:27.649Z,10.02
2023-04-11T00:34:54.093Z,9.96
2023-04-11T00:37:21.502Z,9.94
2023-04-11T00:39:50.487Z,9.91
2023-04-11T00:42:17.130Z,9.59
2023-04-11T00:44:44.790Z,9.92
2023-04-11T00:47:12.057Z,9.88
2023-04-11T00:49:39.713Z,9.70
2023-04-11T00:52:07.092Z,9.80
2023-04-11T00:54:33.693Z,9.73
2023-04-11T00:57:04.387Z,9.77
2023-04-11T00:59:32.486Z,9.77
2023-04-11T01:01:59.851Z,9.68
2023-04-11T01:04:26.784Z,9.69
2023-04-11T01:06:59.063Z,9.66
2023-04-11T01:09:27.433Z,9.62
2023-04-11T01:11:54.252Z,9.69
2023-04-11T01:14:22.106Z,9.53
2023-04-11T01:16:50.799Z,9.52
2023-04-11T01:19:22.151Z,9.39
2023-04-11T01:21:50.442Z,9.48
2023-04-11T01:24:17.623Z,9.32
2023-04-11T01:26:44.656Z,9.47
2023-04-11T01:29:11.747Z,9.44
2023-04-11T01:31:38.548Z,9.27
2023-04-11T01:34:05.532Z,9.44
2023-04-11T01:36:32.268Z,9.48
2023-04-11T01:38:59.333Z,9.47
2023-04-11T01:41:29.434Z,9.41
2023-04-11T01:43:56.722Z,9.38
2023-04-11T01:46:25.118Z,9.36
2023-04-11T01:48:54.702Z,9.29
2023-04-11T01:51:21.533Z,9.29
2023-04-11T01:53:48.120Z,9.16
2023-04-11T01:56:14.814Z,9.15
2023-04-11T01:58:41.337Z,9.22
2023-04-11T02:01:08.073Z,9.23
2023-04-11T02:03:34.868Z,9.21
2023-04-11T02:06:01.623Z,9.16
2023-04-11T02:08:29.319Z,9.11
2023-04-11T02:10:55.777Z,9.12
2023-04-11T02:13:22.208Z,9.10
2023-04-11T02:15:48.768Z,9.07
2023-04-11T02:18:15.265Z,9.02
2023-04-11T02:20:41.668Z,9.08
2023-04-11T02:23:08.196Z,9.04
2023-04-11T02:25:34.644Z,9.03
2023-04-11T02:28:01.211Z,9.10
2023-04-11T02:30:27.696Z,9.04
2023-04-11T02:32:54.261Z,9.06
2023-04-11T02:35:20.783Z,9.05
2023-04-11T02:37:47.193Z,9.04
2023-04-11T02:40:13.799Z,9.02
2023-04-11T02:42:43.035Z,8.72
2023-04-11T02:45:10.286Z,8.99
2023-04-11T02:47:36.861Z,8.97
2023-04-11T02:50:06.815Z,8.94
2023-04-11T02:52:42.099Z,8.93
2023-04-11T02:55:10.210Z,9.05
2023-04-11T02:57:36.964Z,9.08
2023-04-11T03:00:07.206Z,9.01
2023-04-11T03:02:43.868Z,8.97
2023-04-11T03:05:11.713Z,9.02
2023-04-11T03:07:40.515Z,8.99
2023-04-11T03:10:09.075Z,9.04
2023-04-11T03:12:35.610Z,9.00
2023-04-11T03:15:04.917Z,8.92
2023-04-11T03:17:31.960Z,8.70
2023-04-11T03:19:58.828Z,8.73
2023-04-11T03:22:25.981Z,8.70
2023-04-11T03:24:52.530Z,8.72
2023-04-11T03:27:21.668Z,8.68
2023-04-11T03:29:52.917Z,8.63
2023-04-11T03:32:26.901Z,8.61
2023-04-11T03:34:53.477Z,8.63
2023-04-11T03:37:21.681Z,8.60
2023-04-11T03:39:48.325Z,8.62
2023-04-11T03:42:16.090Z,8.62
2023-04-11T03:44:42.593Z,8.62
2023-04-11T03:47:09.093Z,8.13
2023-04-11T03:49:40.785Z,8.48
2023-04-11T03:52:09.690Z,8.47
2023-04-11T03:54:37.629Z,8.34
2023-04-11T03:57:06.084Z,8.43
2023-04-11T03:59:34.238Z,8.44
2023-04-11T04:02:07.582Z,8.42
2023-04-11T04:04:38.944Z,8.42
2023-04-11T04:07:18.100Z,8.49
2023-04-11T04:09:44.655Z,8.45
2023-04-11T04:12:11.604Z,8.42
2023-04-11T04:15:03.638Z,8.34
2023-04-11T04:17:30.670Z,8.32
2023-04-11T04:19:58.379Z,8.25
2023-04-11T04:22:26.648Z,8.23
2023-04-11T04:24:58.286Z,8.25
2023-04-11T04:27:30.207Z,8.38
2023-04-11T04:30:03.774Z,8.32
2023-04-11T04:32:54.883Z,8.26
2023-04-11T04:35:22.785Z,8.29
2023-04-11T04:37:49.916Z,8.27
2023-04-11T04:40:38.027Z,8.26
2023-04-11T04:43:09.041Z,8.25
2023-04-11T04:45:41.541Z,8.18
2023-04-11T04:48:08.516Z,8.16
2023-04-11T04:50:35.484Z,8.26
2023-04-11T04:53:01.884Z,8.14
2023-04-11T04:55:28.781Z,8.07
2023-04-11T04:57:55.647Z,8.05
2023-04-11T05:00:23.312Z,8.05
2023-04-11T05:02:54.645Z,8.02
2023-04-11T05:05:21.674Z,7.92
2023-04-11T05:07:48.391Z,8.00
2023-04-11T05:10:15.727Z,7.92
2023-04-11T05:12:43.823Z,7.91
2023-04-11T05:15:12.385Z,7.90
2023-04-11T05:17:40.580Z,7.89
2023-04-11T05:20:09.071Z,7.79
2023-04-11T05:22:37.935Z,7.77
2023-04-11T05:25:05.442Z,7.70
2023-04-11T05:27:32.346Z,7.75
2023-04-11T05:30:00.576Z,7.80
2023-04-11T05:32:28.237Z,7.82
2023-04-11T05:34:59.131Z,7.87
2023-04-11T05:37:46.182Z,7.82
2023-04-11T05:40:12.787Z,7.89
2023-04-11T05:42:39.295Z,7.94
2023-04-11T05:45:06.429Z,7.89
2023-04-11T05:47:32.971Z,7.94
2023-04-11T05:49:59.819Z,7.91
2023-04-11T05:52:27.187Z,7.81
2023-04-11T05:54:53.755Z,7.80
2023-04-11T05:57:20.915Z,7.82
2023-04-11T05:59:49.845Z,7.90
2023-04-11T06:02:16.804Z,7.85
2023-04-11T06:04:43.472Z,7.86
2023-04-11T06:07:10.167Z,7.83
2023-04-11T06:09:36.768Z,7.92
2023-04-11T06:12:03.621Z,8.13
2023-04-11T06:14:30.069Z,8.54
2023-04-11T06:16:56.591Z,9.09
2023-04-11T06:19:22.997Z,9.74
2023-04-11T06:21:49.552Z,10.08
2023-04-11T06:24:18.537Z,10.22
2023-04-11T06:26:46.573Z,10.14
2023-04-11T06:29:13.059Z,10.05
2023-04-11T06:31:39.834Z,9.80
2023-04-11T06:34:06.360Z,9.70
2023-04-11T06:36:33.046Z,9.60
2023-04-11T06:38:59.487Z,9.83
2023-04-11T06:41:25.890Z,10.25
2023-04-11T06:43:52.371Z,10.69
2023-04-11T06:46:18.924Z,11.05
2023-04-11T06:48:45.346Z,11.74
2023-04-11T06:51:11.914Z,12.33
2023-04-11T06:53:38.407Z,12.32
2023-04-11T06:56:05.571Z,12.52
2023-04-11T06:58:32.040Z,12.71
2023-04-11T07:00:58.760Z,12.93
2023-04-11T07:03:25.356Z,13.21
2023-04-11T07:05:52.356Z,13.46
2023-04-11T07:08:18.794Z,13.76
2023-04-11T07:10:45.238Z,13.84
2023-04-11T07:13:11.699Z,13.86
2023-04-11T07:15:38.150Z,13.70
2023-04-11T07:18:04.717Z,13.37
2023-04-11T07:20:32.973Z,13.03
2023-04-11T07:22:59.468Z,12.69
2023-04-11T07:25:27.146Z,12.83
2023-04-11T07:27:53.693Z,13.07
2023-04-11T07:30:20.270Z,13.40
2023-04-11T07:32:47.066Z,13.88
2023-04-11T07:35:14.242Z,14.25
2023-04-11T07:37:42.285Z,14.53
2023-04-11T07:40:14.026Z,14.95
2023-04-11T07:42:41.307Z,15.09
2023-04-11T07:45:08.492Z,15.04
2023-04-11T07:47:34.965Z,15.60
2023-04-11T07:50:01.943Z,15.65
2023-04-11T07:52:28.652Z,15.69
2023-04-11T07:54:55.814Z,15.77
2023-04-11T07:57:22.451Z,15.95
2023-04-11T07:59:48.894Z,15.76
2023-04-11T08:02:15.404Z,15.67
2023-04-11T08:04:42.196Z,15.74
2023-04-11T08:07:08.766Z,14.98
2023-04-11T08:09:35.778Z,14.43
2023-04-11T08:12:02.336Z,14.45
2023-04-11T08:14:28.826Z,14.39
2023-04-11T08:16:55.289Z,14.46
2023-04-11T08:19:21.941Z,14.64
2023-04-11T08:21:48.448Z,15.01
2023-04-11T08:24:14.945Z,15.28
2023-04-11T08:26:41.489Z,15.47
2023-04-11T08:29:11.335Z,15.36
2023-04-11T08:31:45.591Z,15.35
2023-04-11T08:34:12.825Z,15.01
2023-04-11T08:36:39.400Z,14.49
2023-04-11T08:39:06.674Z,14.07
2023-04-11T08:41:33.465Z,14.00
2023-04-11T08:44:00.579Z,13.75
2023-04-11T08:46:27.212Z,13.44
2023-04-11T08:48:53.788Z,13.23
2023-04-11T08:51:24.868Z,13.90
2023-04-11T08:53:53.923Z,14.02
2023-04-11T08:56:20.594Z,13.89
2023-04-11T08:58:47.996Z,13.38
2023-04-11T09:01:35.047Z,13.89
2023-04-11T09:04:05.366Z,14.10
2023-04-11T09:06:33.673Z,14.17
2023-04-11T09:09:01.857Z,13.99
2023-04-11T09:11:28.335Z,14.52
2023-04-11T09:14:09.318Z,14.84
2023-04-11T09:16:36.321Z,15.17
2023-04-11T09:19:03.071Z,15.29
2023-04-11T09:21:31.067Z,15.53
2023-04-11T09:24:17.947Z,15.52
2023-04-11T09:26:44.405Z,15.45
2023-04-11T09:29:11.038Z,15.77
2023-04-11T09:31:43.095Z,16.13
2023-04-11T09:34:09.851Z,15.96
2023-04-11T09:36:36.476Z,15.40
2023-04-11T09:39:17.182Z,15.63
2023-04-11T09:41:43.975Z,15.31
2023-04-11T09:44:10.543Z,15.10
2023-04-11T09:46:37.454Z,14.77
2023-04-11T09:49:04.374Z,14.75
2023-04-11T09:51:35.761Z,14.95
2023-04-11T09:54:04.648Z,14.80
2023-04-11T09:56:31.759Z,14.59
2023-04-11T09:59:00.131Z,14.65
2023-04-11T10:01:27.439Z,14.45
2023-04-11T10:03:56.151Z,14.49
2023-04-11T10:06:31.254Z,14.16
2023-04-11T10:09:10.841Z,13.84
2023-04-11T10:11:40.196Z,14.00
2023-04-11T10:14:06.666Z,13.75
2023-04-11T10:16:34.288Z,13.62
2023-04-11T10:19:01.105Z,13.81
2023-04-11T10:21:27.758Z,13.54
2023-04-11T10:24:17.766Z,13.52
2023-04-11T10:26:52.124Z,13.91
2023-04-11T10:29:33.834Z,14.19
2023-04-11T10:32:11.565Z,13.95
2023-04-11T10:35:01.481Z,14.01
2023-04-11T10:37:35.623Z,13.98
2023-04-11T10:40:02.006Z,14.09
2023-04-11T10:42:36.599Z,13.68
2023-04-11T10:45:40.468Z,13.34
2023-04-11T10:48:11.696Z,13.06
2023-04-11T10:50:44.449Z,12.79
2023-04-11T10:53:36.536Z,12.13
2023-04-11T10:56:03.258Z,12.22
2023-04-11T10:58:39.282Z,12.02
2023-04-11T11:01:21.290Z,11.99
2023-04-11T11:03:59.640Z,11.78
2023-04-11T11:06:26.526Z,11.90
2023-04-11T11:08:53.125Z,12.22
2023-04-11T11:11:19.773Z,12.49
2023-04-11T11:13:48.147Z,12.59
2023-04-11T11:16:23.149Z,12.65
2023-04-11T11:18:53.675Z,13.02
2023-04-11T11:21:27.668Z,13.10
2023-04-11T11:24:02.546Z,12.65
2023-04-11T11:26:56.221Z,12.92
2023-04-11T11:29:35.702Z,12.98
2023-04-11T11:32:05.522Z,12.92
2023-04-11T11:34:34.409Z,12.63
2023-04-11T11:37:06.793Z,12.50
2023-04-11T11:39:35.361Z,12.62
2023-04-11T11:42:02.365Z,13.06
2023-04-11T11:44:31.066Z,13.38
2023-04-11T11:47:17.354Z,13.58
2023-04-11T11:49:47.638Z,13.67
2023-04-11T11:52:31.759Z,13.77
2023-04-11T11:54:58.743Z,13.78
2023-04-11T11:57:25.918Z,13.81
2023-04-11T11:59:56.345Z,13.90
2023-04-11T12:02:27.374Z,14.15
2023-04-11T12:04:59.933Z,14.15
2023-04-11T12:07:27.118Z,14.09
2023-04-11T12:10:19.790Z,14.24
2023-04-11T12:12:53.105Z,14.37
2023-04-11T12:15:23.208Z,14.50
2023-04-11T12:17:54.224Z,14.50
2023-04-11T12:20:25.063Z,14.40
2023-04-11T12:22:54.136Z,14.06
2023-04-11T12:25:22.221Z,13.83
2023-04-11T12:27:48.941Z,13.71
2023-04-11T12:30:15.569Z,13.83
2023-04-11T12:32:42.514Z,13.89
2023-04-11T12:35:10.499Z,13.83
2023-04-11T12:37:37.710Z,13.68
2023-04-11T12:40:12.066Z,13.67
2023-04-11T12:42:53.254Z,13.60
2023-04-11T12:45:23.281Z,13.51
2023-04-11T12:47:49.832Z,13.49
2023-04-11T12:50:16.462Z,13.42
2023-04-11T12:52:43.205Z,13.61
2023-04-11T12:55:10.006Z,13.71
2023-04-11T12:57:36.746Z,13.64
2023-04-11T13:00:07.685Z,13.80
2023-04-11T13:02:42.178Z,13.94
2023-04-11T13:05:11.898Z,13.67
2023-04-11T13:07:39.133Z,13.58
2023-04-11T13:10:09.195Z,13.72
2023-04-11T13:12:44.458Z,13.97
2023-04-11T13:15:13.354Z,14.04
2023-04-11T13:17:40.211Z,13.93
2023-04-11T13:20:10.298Z,13.89
2023-04-11T13:22:38.068Z,13.75
2023-04-11T13:25:04.986Z,13.54
2023-04-11T13:27:32.018Z,13.52
2023-04-11T13:29:58.492Z,13.42
2023-04-11T13:32:25.153Z,13.49
2023-04-11T13:34:51.605Z,13.39
2023-04-11T13:37:18.155Z,13.40
2023-04-11T13:39:44.600Z,13.55
2023-04-11T13:42:11.690Z,13.66
2023-04-11T13:44:38.134Z,13.46
2023-04-11T13:47:04.775Z,12.95
2023-04-11T13:49:31.199Z,13.21
2023-04-11T13:51:57.805Z,13.37
2023-04-11T13:54:24.363Z,13.48
2023-04-11T13:56:51.022Z,13.53
2023-04-11T13:59:17.449Z,13.56
2023-04-11T14:01:44.201Z,13.38
2023-04-11T14:04:11.775Z,13.44
2023-04-11T14:06:39.374Z,13.41
2023-04-11T14:09:05.910Z,13.42
2023-04-11T14:11:32.483Z,13.39
2023-04-11T14:13:59.030Z,13.42
2023-04-11T14:16:25.656Z,13.43
2023-04-11T14:18:52.150Z,13.48
2023-04-11T14:21:18.885Z,13.58
2023-04-11T14:23:45.369Z,13.25
2023-04-11T14:26:11.817Z,13.39
2023-04-11T14:28:38.363Z,13.43
2023-04-11T14:31:05.133Z,13.41
2023-04-11T14:33:32.192Z,13.44
2023-04-11T14:35:58.812Z,13.25
2023-04-11T14:38:25.337Z,13.29
2023-04-11T14:40:51.858Z,13.39
2023-04-11T14:43:18.316Z,13.39
2023-04-11T14:45:44.774Z,13.42
2023-04-11T14:48:11.701Z,13.45
2023-04-11T14:50:38.157Z,13.54
2023-04-11T14:53:04.579Z,13.53
2023-04-11T14:55:31.118Z,13.50
2023-04-11T14:57:57.573Z,13.46
2023-04-11T15:00:24.952Z,13.03
2023-04-11T15:02:53.882Z,13.25
2023-04-11T15:05:21.668Z,13.29
2023-04-11T15:07:49.898Z,13.31
2023-04-11T15:10:18.785Z,13.31
2023-04-11T15:12:45.775Z,13.39
2023-04-11T15:15:12.785Z,13.42
2023-04-11T15:17:45.586Z,13.54
2023-04-11T15:20:14.279Z,13.52
2023-04-11T15:22:49.872Z,13.67
2023-04-11T15:25:16.700Z,13.36
2023-04-11T15:27:43.792Z,13.39
2023-04-11T15:30:11.259Z,13.13
2023-04-11T15:32:43.372Z,13.30
2023-04-11T15:35:10.627Z,13.09
2023-04-11T15:37:37.208Z,12.96
2023-04-11T15:40:06.554Z,12.93
2023-04-11T15:42:35.318Z,13.06
2023-04-11T15:45:02.559Z,13.02
2023-04-11T15:51:35.594Z,13.00
2023-04-11T15:54:02.084Z,13.00
2023-04-11T15:56:28.587Z,12.96
2023-04-11T15:58:55.462Z,12.90
2023-04-11T16:01:23.353Z,12.99
2023-04-11T16:03:50.260Z,12.99
2023-04-11T16:06:18.554Z,13.10
2023-04-11T16:08:45.423Z,13.07
2023-04-11T16:11:11.941Z,13.09
2023-04-11T16:13:38.393Z,13.03
2023-04-11T16:16:05.324Z,12.98
2023-04-11T16:18:31.777Z,12.85
2023-04-11T16:20:58.232Z,12.87
2023-04-11T16:23:24.698Z,12.82
2023-04-11T16:25:51.143Z,12.81
2023-04-11T16:28:17.574Z,12.69
2023-04-11T16:30:44.011Z,12.68
2023-04-11T16:33:10.553Z,12.63
2023-04-11T16:35:37.022Z,12.72
2023-04-11T16:38:04.229Z,12.71
2023-04-11T16:40:31.732Z,12.71
2023-04-11T16:42:58.151Z,12.56
2023-04-11T16:45:24.747Z,12.69
2023-04-11T16:47:51.187Z,12.61
2023-04-11T16:50:17.970Z,12.58
2023-04-11T16:52:44.460Z,12.54
2023-04-11T16:55:11.106Z,12.43
2023-04-11T16:57:37.566Z,12.44
2023-04-11T17:00:10.054Z,12.34
2023-04-11T17:02:36.542Z,12.16
2023-04-11T17:05:04.334Z,12.06
2023-04-11T17:07:31.322Z,12.07
2023-04-11T17:09:57.875Z,12.04
2023-04-11T17:12:24.304Z,12.01
2023-04-11T17:14:52.481Z,11.95
2023-04-11T17:17:20.557Z,11.92
2023-04-11T17:19:47.028Z,11.88
2023-04-11T17:22:13.488Z,11.91
2023-04-11T17:24:40.567Z,11.91
2023-04-11T17:27:06.993Z,11.82
2023-04-11T17:29:33.445Z,11.95
2023-04-11T17:31:59.858Z,12.21
2023-04-11T17:34:26.429Z,12.15
2023-04-11T17:36:52.831Z,12.04
2023-04-11T17:39:19.561Z,11.96
2023-04-11T17:41:46.803Z,11.94
2023-04-11T17:44:13.665Z,11.84
2023-04-11T17:46:40.138Z,11.82
2023-04-11T17:49:06.632Z,11.78
2023-04-11T17:51:33.106Z,11.68
2023-04-11T17:53:59.740Z,11.70
2023-04-11T17:56:26.970Z,11.65
2023-04-11T17:58:53.581Z,11.65
2023-04-11T18:01:20.666Z,11.57
2023-04-11T18:03:47.411Z,11.47
2023-04-11T18:06:13.978Z,11.47
2023-04-11T18:08:49.660Z,11.43
2023-04-11T18:11:16.662Z,11.41
2023-04-11T18:13:43.767Z,11.26
2023-04-11T18:16:10.825Z,11.30
2023-04-11T18:18:37.442Z,11.30
2023-04-11T18:21:06.646Z,11.31
2023-04-11T18:23:34.010Z,11.32
2023-04-11T18:26:00.502Z,11.26
2023-04-11T18:28:26.924Z,11.22
2023-04-11T18:30:53.453Z,11.14
2023-04-11T18:33:20.946Z,11.12
2023-04-11T18:35:47.878Z,10.98
2023-04-11T18:38:14.759Z,10.92
2023-04-11T18:40:41.265Z,11.01
2023-04-11T18:43:08.205Z,10.94
2023-04-11T18:45:35.335Z,10.76
2023-04-11T18:48:02.188Z,10.84
2023-04-11T18:50:30.612Z,10.81
2023-04-11T18:53:01.342Z,10.83
2023-04-11T18:55:31.355Z,10.74
2023-04-11T18:57:59.990Z,10.76
2023-04-11T19:00:28.613Z,10.68
2023-04-11T19:02:55.340Z,10.60
2023-04-11T19:05:25.082Z,10.62
2023-04-11T19:07:52.019Z,10.53
2023-04-11T19:10:18.585Z,10.52
2023-04-11T19:12:45.171Z,10.50
2023-04-11T19:15:12.212Z,10.36
2023-04-11T19:17:38.841Z,10.33
2023-04-11T19:20:12.919Z,10.35
2023-04-11T19:22:40.908Z,10.32
2023-04-11T19:25:10.501Z,10.26
2023-04-11T19:27:40.035Z,10.25
2023-04-11T19:30:08.464Z,10.29
2023-04-11T19:32:38.369Z,10.23
2023-04-11T19:35:08.650Z,10.08
2023-04-11T19:37:36.269Z,10.21
2023-04-11T19:40:16.633Z,10.17
2023-04-11T19:42:44.309Z,10.16
2023-04-11T19:45:11.435Z,10.09
2023-04-11T19:47:39.744Z,10.13
2023-04-11T19:50:09.231Z,10.09
2023-04-11T19:52:35.669Z,10.05
2023-04-11T19:55:02.238Z,10.05
2023-04-11T19:57:29.053Z,9.94
2023-04-11T19:59:55.629Z,9.92
2023-04-11T20:02:22.225Z,9.95
2023-04-11T20:04:49.443Z,9.79
2023-04-11T20:07:16.344Z,9.75
2023-04-11T20:09:42.887Z,9.84
2023-04-11T20:12:09.456Z,9.77
2023-04-11T20:14:37.860Z,9.69
2023-04-11T20:17:05.562Z,9.71
2023-04-11T20:19:33.148Z,9.63
2023-04-11T20:22:00.768Z,9.59
2023-04-11T20:24:27.727Z,9.58
2023-04-11T20:26:54.327Z,9.56
2023-04-11T20:29:24.581Z,9.57
2023-04-11T20:31:51.008Z,9.65
2023-04-11T20:34:17.430Z,9.62
2023-04-11T20:36:44.529Z,9.44
2023-04-11T20:39:10.990Z,9.38
2023-04-11T20:41:40.242Z,9.34
2023-04-11T20:44:06.813Z,9.25
2023-04-11T20:46:33.501Z,9.12
2023-04-11T20:48:59.987Z,9.21
2023-04-11T20:51:26.604Z,9.22
2023-04-11T20:53:53.081Z,9.20
2023-04-11T20:56:19.524Z,9.27
2023-04-11T20:58:46.496Z,9.29
2023-04-11T21:01:13.428Z,9.30
2023-04-11T21:03:42.429Z,9.18
2023-04-11T21:06:10.207Z,9.28
2023-04-11T21:08:37.335Z,9.21
2023-04-11T21:11:05.597Z,9.18
2023-04-11T21:13:32.177Z,9.22
2023-04-11T21:15:58.806Z,9.29
2023-04-11T21:18:25.472Z,9.28
2023-04-11T21:20:51.870Z,9.23
2023-04-11T21:23:18.504Z,9.06
2023-04-11T21:25:44.881Z,9.03
2023-04-11T21:28:11.331Z,9.04
2023-04-11T21:30:39.345Z,8.97
2023-04-11T21:33:05.930Z,9.14
2023-04-11T21:35:32.449Z,9.03
2023-04-11T21:37:58.857Z,9.02
2023-04-11T21:40:25.336Z,8.96
2023-04-11T21:42:51.849Z,8.92
2023-04-11T21:45:18.388Z,8.96
2023-04-11T21:47:44.913Z,8.82
2023-04-11T21:50:11.556Z,8.72
2023-04-11T21:52:38.098Z,8.74
2023-04-11T21:55:07.229Z,8.68
2023-04-11T21:57:35.690Z,8.57
2023-04-11T22:00:02.211Z,8.65
2023-04-11T22:02:38.867Z,8.57
2023-04-11T22:05:08.729Z,8.50
2023-04-11T22:07:46.113Z,8.52
2023-04-11T22:10:13.014Z,8.56
2023-04-11T22:12:40.538Z,8.14
2023-04-11T22:15:07.831Z,8.44
2023-04-11T22:17:34.484Z,8.52
2023-04-11T22:20:00.955Z,8.44
2023-04-11T22:22:30.430Z,8.25
2023-04-11T22:24:59.866Z,8.34
2023-04-11T22:27:27.202Z,8.20
2023-04-11T22:29:56.062Z,8.20
2023-04-11T22:32:23.900Z,8.24
2023-04-11T22:34:50.482Z,8.20
2023-04-11T22:37:17.123Z,8.22
2023-04-11T22:39:43.648Z,8.15
2023-04-11T22:42:11.582Z,8.12
2023-04-11T22:44:38.256Z,8.16
2023-04-11T22:47:07.038Z,8.21
2023-04-11T22:49:42.920Z,8.16
2023-04-11T22:52:14.988Z,8.23
2023-04-11T22:54:42.573Z,8.28
2023-04-11T22:57:09.372Z,8.22
2023-04-11T22:59:36.720Z,8.29
2023-04-11T23:02:03.420Z,8.41
2023-04-11T23:04:31.421Z,8.22
2023-04-11T23:06:58.117Z,8.33
2023-04-11T23:09:24.542Z,8.40
2023-04-11T23:11:52.223Z,8.43
2023-04-11T23:14:20.807Z,8.28
2023-04-11T23:16:47.253Z,8.39
2023-04-11T23:19:13.948Z,8.45
2023-04-11T23:21:41.058Z,8.47
2023-04-11T23:24:07.608Z,8.47
2023-04-11T23:26:34.037Z,8.16
2023-04-11T23:29:02.216Z,8.59
2023-04-11T23:31:29.197Z,8.56
2023-04-11T23:33:56.962Z,8.64
2023-04-11T23:36:23.711Z,8.55
2023-04-11T23:38:50.187Z,8.52
2023-04-11T23:41:16.633Z,8.49
2023-04-11T23:43:43.109Z,8.30
2023-04-11T23:46:17.872Z,8.39
2023-04-11T23:48:44.823Z,8.35
2023-04-11T23:51:11.306Z,8.33
2023-04-11T23:53:37.926Z,8.35
2023-04-11T23:56:04.651Z,8.31
2023-04-11T23:58:31.182Z,8.25
